Time;durP1;ratioP1;P1;durP2;ratioP2;P2;SDS_P1;SDS_P2;PMS_P1;PMS_P2;Temp;Humidity;BMP_temperature;BMP_pressure;BME280_temperature;BME280_humidity;BME280_pressure;Samples;Min_cycle;Max_cycle;Signal;HPM_P1;HPM_P2
2021/11/27 00:00:46;;;;;;;45.27;18.30;;;1.90;99.90;;;;;;5071562;28;20102;-70
2021/11/27 00:03:14;;;;;;;44.43;17.97;;;1.90;99.90;;;;;;5071536;28;20049;-71
2021/11/27 00:05:42;;;;;;;47.13;19.40;;;2.00;99.90;;;;;;5071008;28;20500;-71
2021/11/27 00:08:10;;;;;;;46.47;18.17;;;2.00;99.90;;;;;;5071665;28;20053;-69
2021/11/27 00:10:39;;;;;;;44.93;18.47;;;2.00;99.90;;;;;;5071363;28;20546;-72
2021/11/27 00:13:08;;;;;;;44.47;18.40;;;2.00;99.90;;;;;;5071109;28;20473;-70
2021/11/27 00:15:36;;;;;;;40.90;16.13;;;2.00;99.90;;;;;;5070768;28;20048;-69
2021/11/27 00:18:05;;;;;;;42.17;16.73;;;2.10;99.90;;;;;;5070869;28;20102;-69
2021/11/27 00:20:38;;;;;;;47.83;19.53;;;2.00;99.90;;;;;;5071415;28;20068;-69
2021/11/27 00:23:06;;;;;;;40.30;17.23;;;2.00;99.90;;;;;;5071438;28;20082;-69
2021/11/27 00:25:34;;;;;;;38.23;15.47;;;2.00;99.90;;;;;;5070364;28;20053;-69
2021/11/27 00:28:01;;;;;;;41.27;16.37;;;2.00;99.90;;;;;;5071108;28;20049;-69
2021/11/27 00:30:32;;;;;;;37.97;16.30;;;2.00;99.90;;;;;;5071003;28;20458;-69
2021/11/27 00:33:00;;;;;;;42.83;17.60;;;2.00;99.90;;;;;;5071122;28;20048;-69
2021/11/27 00:35:27;;;;;;;46.80;17.90;;;2.00;99.90;;;;;;5070521;28;20048;-71
2021/11/27 00:37:57;;;;;;;45.80;19.13;;;2.00;99.90;;;;;;5071056;28;20273;-69
2021/11/27 00:40:25;;;;;;;43.87;18.80;;;2.00;99.90;;;;;;5070675;28;20052;-72
2021/11/27 00:42:54;;;;;;;44.43;17.83;;;2.00;99.90;;;;;;5069952;28;20048;-70
2021/11/27 00:45:22;;;;;;;37.33;17.30;;;2.00;99.90;;;;;;5070212;28;20048;-69
2021/11/27 00:47:54;;;;;;;43.07;17.03;;;2.00;99.90;;;;;;5070979;28;20094;-69
2021/11/27 00:50:24;;;;;;;42.50;17.10;;;2.10;99.90;;;;;;5070949;28;20056;-69
2021/11/27 00:52:51;;;;;;;38.03;16.90;;;2.00;99.90;;;;;;5071194;28;20431;-70
2021/11/27 00:55:19;;;;;;;35.43;14.53;;;2.00;99.90;;;;;;5069610;28;20049;-70
2021/11/27 00:57:48;;;;;;;41.90;16.03;;;2.00;99.90;;;;;;5070528;28;20056;-69
2021/11/27 01:00:18;;;;;;;39.73;16.57;;;2.00;99.90;;;;;;5070760;28;20139;-69
2021/11/27 01:02:46;;;;;;;36.47;15.03;;;2.10;99.90;;;;;;5071074;28;20048;-69
2021/11/27 01:05:15;;;;;;;41.27;17.13;;;2.10;99.90;;;;;;5070586;28;20063;-69
2021/11/27 01:07:42;;;;;;;36.20;16.17;;;2.00;99.90;;;;;;5071209;28;20527;-68
2021/11/27 01:10:12;;;;;;;37.47;13.90;;;2.10;99.90;;;;;;5071181;28;20044;-69
2021/11/27 01:12:40;;;;;;;35.87;16.13;;;2.10;99.90;;;;;;5071246;28;20436;-71
2021/11/27 01:15:08;;;;;;;37.53;15.00;;;2.10;99.90;;;;;;5070364;28;20048;-69
2021/11/27 01:17:35;;;;;;;34.90;15.73;;;2.10;99.90;;;;;;5071111;28;20102;-69
2021/11/27 01:20:04;;;;;;;39.10;16.23;;;2.10;99.90;;;;;;5070791;28;20496;-70
2021/11/27 01:22:32;;;;;;;38.97;17.00;;;2.10;99.90;;;;;;5070843;28;20122;-69
2021/11/27 01:25:00;;;;;;;36.93;16.07;;;2.10;99.90;;;;;;5070129;28;20492;-69
2021/11/27 01:27:27;;;;;;;37.70;16.33;;;2.10;99.90;;;;;;5070703;28;20051;-70
2021/11/27 01:29:55;;;;;;;40.57;17.43;;;2.10;99.90;;;;;;5071029;28;20064;-70
2021/11/27 01:32:22;;;;;;;37.43;15.70;;;2.10;99.90;;;;;;5070400;28;20411;-69
2021/11/27 01:34:49;;;;;;;37.73;16.03;;;2.10;99.90;;;;;;5070144;28;20462;-70
2021/11/27 01:37:16;;;;;;;34.60;15.43;;;2.10;99.90;;;;;;5070814;28;20103;-70
2021/11/27 01:39:45;;;;;;;40.00;16.87;;;2.10;99.90;;;;;;5070272;28;20052;-69
2021/11/27 01:42:13;;;;;;;39.07;16.30;;;2.10;99.90;;;;;;5070646;28;20209;-72
2021/11/27 01:44:40;;;;;;;42.53;16.53;;;2.10;99.90;;;;;;5069982;28;20103;-69
2021/11/27 01:47:08;;;;;;;37.80;15.87;;;2.10;99.90;;;;;;5069863;28;20049;-69
2021/11/27 01:49:35;;;;;;;39.57;16.63;;;2.10;99.90;;;;;;5070227;28;20098;-71
2021/11/27 01:52:02;;;;;;;36.30;16.50;;;2.10;99.90;;;;;;5070216;28;20044;-72
2021/11/27 01:54:29;;;;;;;39.97;17.47;;;2.10;99.90;;;;;;5068952;28;20053;-70
2021/11/27 01:57:00;;;;;;;37.77;16.60;;;2.10;99.90;;;;;;5069829;28;20048;-69
2021/11/27 01:59:30;;;;;;;36.10;15.00;;;2.10;99.90;;;;;;5069788;28;20068;-71
2021/11/27 02:01:57;;;;;;;37.20;16.07;;;2.10;99.90;;;;;;5069845;28;20493;-69
2021/11/27 02:04:26;;;;;;;37.37;16.23;;;2.10;99.90;;;;;;5069590;28;20052;-70
2021/11/27 02:06:53;;;;;;;35.07;16.10;;;2.10;99.90;;;;;;5069343;28;20496;-69
2021/11/27 02:09:23;;;;;;;38.30;16.23;;;2.20;99.90;;;;;;5069842;28;20048;-70
2021/11/27 02:11:52;;;;;;;35.33;15.10;;;2.20;99.90;;;;;;5069767;28;20044;-70
2021/11/27 02:14:21;;;;;;;36.30;15.47;;;2.10;99.90;;;;;;5069561;28;20473;-71
2021/11/27 02:16:49;;;;;;;34.50;16.93;;;2.10;99.90;;;;;;5068997;28;20570;-70
2021/11/27 02:19:17;;;;;;;35.03;15.37;;;2.20;99.90;;;;;;5069825;28;20139;-70
2021/11/27 02:21:46;;;;;;;35.17;14.93;;;2.20;99.90;;;;;;5069637;28;20127;-70
2021/11/27 02:24:13;;;;;;;36.87;16.50;;;2.20;99.90;;;;;;5069304;28;20052;-71
2021/11/27 02:26:41;;;;;;;36.50;15.90;;;2.20;99.90;;;;;;5068997;28;20049;-68
2021/11/27 02:29:14;;;;;;;31.83;14.37;;;2.20;99.90;;;;;;5069577;28;20098;-70
2021/11/27 02:31:41;;;;;;;37.90;16.07;;;2.20;99.90;;;;;;5069371;28;20455;-69
2021/11/27 02:34:09;;;;;;;32.00;14.67;;;2.20;99.90;;;;;;5069488;28;20109;-70
2021/11/27 02:36:38;;;;;;;31.90;14.07;;;2.30;99.90;;;;;;5069051;28;20048;-71
2021/11/27 02:39:10;;;;;;;31.63;12.97;;;2.30;99.90;;;;;;5068981;28;20405;-69
2021/11/27 02:41:38;;;;;;;29.70;14.57;;;2.30;99.90;;;;;;5069722;28;20052;-69
2021/11/27 02:44:07;;;;;;;35.97;14.13;;;2.30;99.90;;;;;;5069622;28;20055;-69
2021/11/27 02:46:34;;;;;;;31.03;13.70;;;2.30;99.90;;;;;;5068624;28;20059;-69
2021/11/27 02:49:01;;;;;;;29.93;14.00;;;2.30;99.90;;;;;;5069334;28;20048;-69
2021/11/27 02:51:28;;;;;;;32.67;13.43;;;2.30;99.90;;;;;;5069562;28;20056;-68
2021/11/27 02:53:55;;;;;;;30.47;13.10;;;2.40;99.90;;;;;;5068834;28;20049;-71
2021/11/27 02:56:24;;;;;;;30.00;14.27;;;2.40;99.90;;;;;;5068863;28;20052;-69
2021/11/27 02:58:51;;;;;;;32.17;13.73;;;2.40;99.90;;;;;;5069309;28;20049;-69
2021/11/27 03:01:18;;;;;;;30.60;13.20;;;2.40;99.90;;;;;;5069201;28;20109;-70
2021/11/27 03:03:46;;;;;;;30.73;12.97;;;2.40;99.90;;;;;;5068720;28;20048;-70
2021/11/27 03:06:13;;;;;;;33.77;14.00;;;2.40;99.90;;;;;;5089132;22;20045;-67
2021/11/27 03:08:42;;;;;;;29.43;13.93;;;2.40;99.90;;;;;;5090575;28;20057;-67
2021/11/27 03:11:09;;;;;;;28.10;13.40;;;2.40;99.90;;;;;;5071338;28;20101;-67
2021/11/27 03:13:40;;;;;;;27.27;13.17;;;2.50;99.90;;;;;;5069538;28;20418;-67
2021/11/27 03:16:07;;;;;;;29.70;13.30;;;2.50;99.90;;;;;;5068806;28;20055;-67
2021/11/27 03:18:34;;;;;;;32.30;14.20;;;2.40;99.90;;;;;;5069424;28;20129;-67
2021/11/27 03:21:02;;;;;;;29.87;13.40;;;2.50;99.90;;;;;;5069503;28;20052;-67
2021/11/27 03:23:30;;;;;;;30.10;14.10;;;2.50;99.90;;;;;;5068863;28;20068;-67
2021/11/27 03:25:57;;;;;;;28.77;12.70;;;2.50;99.90;;;;;;5068675;28;20052;-67
2021/11/27 03:28:24;;;;;;;32.73;13.57;;;2.50;99.90;;;;;;5069215;28;20056;-67
2021/11/27 03:30:53;;;;;;;28.53;12.90;;;2.50;99.90;;;;;;5069478;28;20070;-67
2021/11/27 03:33:21;;;;;;;30.07;12.13;;;2.60;99.90;;;;;;5069056;28;20048;-67
2021/11/27 03:35:48;;;;;;;26.57;11.73;;;2.50;99.90;;;;;;5068186;28;20056;-67
2021/11/27 03:38:15;;;;;;;29.73;13.30;;;2.60;99.90;;;;;;5069153;28;20125;-67
2021/11/27 03:40:43;;;;;;;30.83;13.90;;;2.60;99.90;;;;;;5065564;28;20060;-67
2021/11/27 03:43:10;;;;;;;23.57;11.87;;;2.60;99.90;;;;;;5067969;28;20101;-67
2021/11/27 03:45:37;;;;;;;26.57;13.77;;;2.70;99.90;;;;;;5067960;28;20492;-67
2021/11/27 03:48:09;;;;;;;27.43;12.53;;;2.70;99.90;;;;;;5068962;28;20048;-67
2021/11/27 03:50:39;;;;;;;27.70;13.20;;;2.70;99.90;;;;;;5068471;28;20093;-67
2021/11/27 03:53:07;;;;;;;25.07;11.37;;;2.70;99.90;;;;;;5068188;28;20052;-67
2021/11/27 03:55:34;;;;;;;28.17;11.77;;;2.80;99.90;;;;;;5067814;28;20045;-67
2021/11/27 03:58:01;;;;;;;25.50;12.63;;;2.70;99.90;;;;;;5068862;28;20090;-68
2021/11/27 04:00:29;;;;;;;28.47;11.67;;;2.70;99.90;;;;;;5067004;28;20049;-67
2021/11/27 04:02:56;;;;;;;24.47;11.03;;;2.70;99.90;;;;;;5063104;28;20102;-67
2021/11/27 04:05:25;;;;;;;24.77;11.63;;;2.70;99.90;;;;;;5067178;28;20045;-67
2021/11/27 04:07:57;;;;;;;24.47;11.70;;;2.70;99.90;;;;;;5068391;28;20558;-67
2021/11/27 04:10:24;;;;;;;25.97;12.60;;;2.70;99.90;;;;;;5068356;28;20056;-67
2021/11/27 04:12:51;;;;;;;24.90;10.60;;;2.70;99.90;;;;;;5059636;28;20044;-67
2021/11/27 04:15:18;;;;;;;23.67;11.03;;;2.70;99.90;;;;;;5066945;28;20052;-67
2021/11/27 04:17:46;;;;;;;23.07;11.10;;;2.70;99.90;;;;;;5071285;28;20057;-67
2021/11/27 04:20:13;;;;;;;23.53;10.97;;;2.70;99.90;;;;;;5071375;28;20095;-67
2021/11/27 04:22:42;;;;;;;26.47;11.37;;;2.70;99.90;;;;;;5068759;28;20504;-67
2021/11/27 04:25:10;;;;;;;26.10;12.53;;;2.60;99.90;;;;;;5050945;28;20114;-67
2021/11/27 04:27:38;;;;;;;24.17;10.43;;;2.60;99.90;;;;;;5051631;28;20048;-67
2021/11/27 04:30:07;;;;;;;23.90;10.67;;;2.60;99.90;;;;;;5051450;28;20493;-67
2021/11/27 04:32:34;;;;;;;21.77;10.50;;;2.60;99.90;;;;;;5052011;28;20176;-67
2021/11/27 04:35:02;;;;;;;21.40;10.07;;;2.60;99.90;;;;;;5050649;28;20464;-67
2021/11/27 04:37:29;;;;;;;25.10;11.10;;;2.60;99.90;;;;;;5051505;28;20055;-67
2021/11/27 04:39:57;;;;;;;27.33;10.30;;;2.60;99.90;;;;;;5051471;28;20102;-67
2021/11/27 04:42:24;;;;;;;22.20;10.47;;;2.60;99.90;;;;;;5051138;28;20118;-67
2021/11/27 04:44:51;;;;;;;23.03;10.17;;;2.60;99.90;;;;;;5050617;28;20057;-67
2021/11/27 04:47:18;;;;;;;22.43;10.57;;;2.60;99.90;;;;;;5051203;28;20049;-66
2021/11/27 04:49:45;;;;;;;21.73;9.13;;;2.60;99.90;;;;;;5051257;28;20053;-66
2021/11/27 04:52:13;;;;;;;20.27;10.13;;;2.70;99.90;;;;;;5051521;28;20298;-67
2021/11/27 04:54:40;;;;;;;25.30;11.50;;;2.60;99.90;;;;;;5051719;28;20049;-67
2021/11/27 04:57:08;;;;;;;21.67;10.47;;;2.60;99.90;;;;;;5050954;28;20051;-67
2021/11/27 04:59:36;;;;;;;20.47;9.93;;;2.60;99.90;;;;;;5051354;28;20056;-66
2021/11/27 05:02:03;;;;;;;25.50;10.67;;;2.60;99.90;;;;;;5051119;28;20485;-67
2021/11/27 05:04:31;;;;;;;22.53;10.80;;;2.60;99.90;;;;;;5050748;28;20049;-66
2021/11/27 05:06:58;;;;;;;23.40;10.77;;;2.60;99.90;;;;;;5050575;28;20053;-67
2021/11/27 05:09:25;;;;;;;22.60;10.33;;;2.60;99.90;;;;;;5050955;28;20107;-67
2021/11/27 05:11:52;;;;;;;19.70;10.93;;;2.60;99.90;;;;;;5051697;28;20103;-67
2021/11/27 05:14:21;;;;;;;23.53;11.67;;;2.60;99.90;;;;;;5050816;28;20447;-67
2021/11/27 05:16:48;;;;;;;19.73;9.57;;;2.50;99.90;;;;;;5050316;28;20049;-67
2021/11/27 05:19:15;;;;;;;24.23;11.23;;;2.50;99.90;;;;;;5051049;28;20057;-67
2021/11/27 05:21:42;;;;;;;21.93;11.37;;;2.50;99.90;;;;;;5055900;28;20053;-67
2021/11/27 05:24:10;;;;;;;26.37;11.60;;;2.50;99.90;;;;;;5057346;28;20053;-67
2021/11/27 05:26:37;;;;;;;22.63;10.83;;;2.50;99.90;;;;;;5059687;28;20053;-67
2021/11/27 05:29:04;;;;;;;25.10;12.00;;;2.50;99.90;;;;;;5062845;28;20103;-67
2021/11/27 05:31:33;;;;;;;24.30;11.13;;;2.50;99.90;;;;;;5066567;28;20082;-67
2021/11/27 05:34:21;;;;;;;22.30;10.80;;;2.50;99.90;;;;;;5066485;28;20056;-67
2021/11/27 05:36:48;;;;;;;24.37;11.10;;;2.60;99.90;;;;;;5060668;28;20063;-67
2021/11/27 05:39:15;;;;;;;23.93;11.20;;;2.50;99.90;;;;;;5062157;28;20056;-67
2021/11/27 05:41:42;;;;;;;21.73;10.90;;;2.50;99.90;;;;;;5060672;28;20083;-67
2021/11/27 05:44:09;;;;;;;25.63;11.23;;;2.50;99.90;;;;;;5052260;28;20471;-66
2021/11/27 05:46:38;;;;;;;21.17;10.67;;;2.50;99.90;;;;;;5049865;28;20102;-67
2021/11/27 05:49:05;;;;;;;26.07;11.70;;;2.40;99.90;;;;;;5053592;28;20509;-66
2021/11/27 05:51:32;;;;;;;24.63;11.47;;;2.30;99.90;;;;;;5050619;28;20405;-67
2021/11/27 05:53:59;;;;;;;25.97;12.00;;;2.30;99.90;;;;;;5050063;28;20471;-67
2021/11/27 05:56:26;;;;;;;26.60;13.37;;;2.20;99.90;;;;;;5049608;28;20082;-67
2021/11/27 05:58:56;;;;;;;25.20;11.53;;;2.10;99.90;;;;;;5050093;28;20063;-67
2021/11/27 06:01:23;;;;;;;25.37;11.53;;;2.10;99.90;;;;;;5050369;28;20052;-69
2021/11/27 06:03:51;;;;;;;27.57;11.37;;;2.10;99.90;;;;;;5049452;28;20099;-67
2021/11/27 06:06:19;;;;;;;26.47;12.60;;;2.00;99.90;;;;;;5049316;28;20048;-67
2021/11/27 06:08:46;;;;;;;27.80;12.97;;;2.00;99.90;;;;;;5050049;28;20048;-68
2021/11/27 06:11:13;;;;;;;30.00;13.77;;;2.00;99.90;;;;;;5049893;28;20444;-69
2021/11/27 06:13:40;;;;;;;28.97;13.10;;;2.00;99.90;;;;;;5049974;28;20106;-68
2021/11/27 06:16:08;;;;;;;28.73;13.17;;;2.10;99.90;;;;;;5059238;28;20079;-69
2021/11/27 06:18:35;;;;;;;31.57;14.40;;;2.10;99.90;;;;;;5069397;28;20061;-69
2021/11/27 06:21:05;;;;;;;28.03;12.97;;;2.10;99.90;;;;;;5050793;28;20052;-69
2021/11/27 06:23:33;;;;;;;25.80;11.93;;;2.00;99.90;;;;;;5050264;28;20067;-70
2021/11/27 06:26:00;;;;;;;28.57;12.87;;;2.00;99.90;;;;;;5048817;28;20115;-69
2021/11/27 06:28:27;;;;;;;27.87;13.43;;;2.00;99.90;;;;;;5049753;28;20131;-70
2021/11/27 06:30:55;;;;;;;23.37;12.37;;;2.00;99.90;;;;;;5049216;28;20052;-69
2021/11/27 06:33:22;;;;;;;28.20;13.80;;;1.90;99.90;;;;;;5049267;28;20460;-69
2021/11/27 06:35:49;;;;;;;28.97;13.63;;;1.90;99.90;;;;;;5048661;28;20095;-69
2021/11/27 06:38:19;;;;;;;28.67;14.27;;;1.80;99.90;;;;;;5049385;28;20554;-69
2021/11/27 06:40:46;;;;;;;26.97;12.73;;;1.90;99.90;;;;;;5049162;28;20061;-70
2021/11/27 06:43:13;;;;;;;28.87;13.93;;;1.90;99.90;;;;;;5048920;28;20061;-69
2021/11/27 06:45:40;;;;;;;29.37;13.87;;;1.90;99.90;;;;;;5048575;28;20052;-70
2021/11/27 06:48:07;;;;;;;29.47;14.37;;;1.90;99.90;;;;;;5049069;28;20049;-70
2021/11/27 06:50:34;;;;;;;28.07;13.17;;;2.00;99.90;;;;;;5049591;28;20048;-70
2021/11/27 06:53:01;;;;;;;26.40;13.13;;;2.00;99.90;;;;;;5049209;28;20053;-70
2021/11/27 06:55:30;;;;;;;29.43;12.27;;;2.00;99.90;;;;;;5048862;28;20056;-69
2021/11/27 06:57:57;;;;;;;30.03;13.73;;;2.10;99.90;;;;;;5048743;28;20048;-69
2021/11/27 07:00:24;;;;;;;27.83;11.83;;;2.10;99.90;;;;;;5049127;28;20049;-69
2021/11/27 07:02:51;;;;;;;24.53;12.43;;;2.00;99.90;;;;;;5049270;28;20049;-69
2021/11/27 07:05:18;;;;;;;30.50;14.20;;;2.00;99.90;;;;;;5048500;28;20049;-69
2021/11/27 07:07:46;;;;;;;24.63;12.63;;;2.00;99.90;;;;;;5049791;28;20053;-69
2021/11/27 07:10:13;;;;;;;30.77;15.17;;;2.00;99.90;;;;;;5049790;28;20056;-70
2021/11/27 07:12:41;;;;;;;25.73;12.57;;;1.90;99.90;;;;;;5049352;28;20056;-70
2021/11/27 07:15:09;;;;;;;33.67;14.30;;;1.80;99.90;;;;;;5048963;28;20075;-70
2021/11/27 07:17:36;;;;;;;27.43;13.33;;;1.80;99.90;;;;;;5049152;28;20426;-70
2021/11/27 07:20:07;;;;;;;31.80;14.27;;;1.70;99.90;;;;;;5049579;28;20053;-70
2021/11/27 07:22:34;;;;;;;31.60;13.93;;;1.60;99.90;;;;;;5049697;28;20071;-70
2021/11/27 07:25:01;;;;;;;34.27;15.50;;;1.50;99.90;;;;;;5048459;28;20114;-70
2021/11/27 07:27:28;;;;;;;28.93;14.43;;;1.40;99.90;;;;;;5049761;28;20075;-70
2021/11/27 07:29:57;;;;;;;30.67;14.63;;;1.40;99.90;;;;;;5049744;28;20551;-70
2021/11/27 07:32:24;;;;;;;30.37;14.07;;;1.30;99.90;;;;;;5048791;28;20471;-70
2021/11/27 07:34:52;;;;;;;29.77;13.63;;;1.30;99.90;;;;;;5048717;28;20144;-70
2021/11/27 07:37:19;;;;;;;34.63;13.93;;;1.20;99.90;;;;;;5049038;28;20568;-70
2021/11/27 07:39:46;;;;;;;34.50;15.87;;;1.20;99.90;;;;;;5049497;28;20464;-70
2021/11/27 07:42:13;;;;;;;29.97;13.50;;;1.20;99.90;;;;;;5049341;28;20471;-70
2021/11/27 07:44:40;;;;;;;35.37;15.17;;;1.20;99.90;;;;;;5048534;28;20390;-70
2021/11/27 07:47:09;;;;;;;34.80;14.27;;;1.20;99.90;;;;;;5048636;28;20107;-70
2021/11/27 07:49:36;;;;;;;31.90;14.67;;;1.20;99.90;;;;;;5049039;28;20463;-70
2021/11/27 07:52:03;;;;;;;35.93;14.87;;;1.20;99.90;;;;;;5052471;28;20436;-70
2021/11/27 07:54:30;;;;;;;38.87;15.80;;;1.10;99.90;;;;;;5052559;28;20077;-70
2021/11/27 07:56:57;;;;;;;33.83;13.90;;;1.10;99.90;;;;;;5052298;28;20497;-70
2021/11/27 07:59:25;;;;;;;35.70;14.77;;;1.10;99.90;;;;;;5052552;28;20052;-71
2021/11/27 08:01:52;;;;;;;31.13;14.33;;;1.20;99.90;;;;;;5052500;28;20049;-70
2021/11/27 08:04:20;;;;;;;29.73;13.57;;;1.20;99.90;;;;;;5053421;28;20045;-70
2021/11/27 08:06:47;;;;;;;34.67;14.97;;;1.10;99.90;;;;;;5053528;28;20098;-70
2021/11/27 08:09:14;;;;;;;35.90;15.27;;;1.10;99.90;;;;;;5052703;28;20057;-71
2021/11/27 08:11:41;;;;;;;39.20;16.03;;;1.10;99.90;;;;;;5052688;28;20053;-70
2021/11/27 08:14:08;;;;;;;38.53;15.87;;;1.10;99.90;;;;;;5052076;28;20511;-70
2021/11/27 08:16:35;;;;;;;34.07;14.93;;;1.10;99.90;;;;;;5051968;28;20304;-71
2021/11/27 08:19:02;;;;;;;36.23;14.60;;;1.10;99.90;;;;;;5052839;28;20045;-71
2021/11/27 08:21:31;;;;;;;36.20;14.63;;;1.20;99.90;;;;;;5052766;28;20052;-71
2021/11/27 08:23:58;;;;;;;36.97;16.13;;;1.30;99.90;;;;;;5052240;28;20049;-70
2021/11/27 08:26:25;;;;;;;35.07;14.33;;;1.30;99.90;;;;;;5052847;28;20558;-70
2021/11/27 08:28:52;;;;;;;31.40;13.83;;;1.40;99.90;;;;;;5054203;28;20126;-70
2021/11/27 08:31:19;;;;;;;32.80;14.43;;;1.50;99.90;;;;;;5053046;28;20052;-70
2021/11/27 08:33:46;;;;;;;34.00;14.83;;;1.50;99.90;;;;;;5053180;28;20106;-70
2021/11/27 08:36:13;;;;;;;33.40;13.97;;;1.50;99.90;;;;;;5052734;28;20053;-70
2021/11/27 08:38:42;;;;;;;30.50;15.13;;;1.50;99.90;;;;;;5068429;28;20056;-71
2021/11/27 08:41:09;;;;;;;35.17;14.57;;;1.60;99.90;;;;;;5071711;28;20390;-70
2021/11/27 08:43:37;;;;;;;32.00;13.97;;;1.60;99.90;;;;;;5054516;28;20053;-70
2021/11/27 08:46:05;;;;;;;29.33;14.17;;;1.60;99.90;;;;;;5052654;28;20467;-71
2021/11/27 08:48:36;;;;;;;32.60;13.80;;;1.70;99.90;;;;;;5052249;28;20053;-71
2021/11/27 08:51:03;;;;;;;26.73;12.47;;;1.70;99.90;;;;;;5053485;28;20057;-71
2021/11/27 08:53:31;;;;;;;25.57;12.27;;;1.80;99.90;;;;;;5052563;28;20095;-70
2021/11/27 08:55:59;;;;;;;23.43;11.43;;;1.80;99.90;;;;;;5051685;28;20060;-70
2021/11/27 08:58:26;;;;;;;31.60;13.43;;;1.90;99.90;;;;;;5052377;28;20044;-70
2021/11/27 09:00:54;;;;;;;26.03;12.20;;;1.90;99.90;;;;;;5052448;28;20103;-71
2021/11/27 09:03:21;;;;;;;24.60;11.20;;;2.00;99.90;;;;;;5051918;28;20057;-70
2021/11/27 09:05:48;;;;;;;26.10;11.87;;;1.90;99.90;;;;;;5132992;22;20088;-72
2021/11/27 09:08:16;;;;;;;26.90;11.67;;;1.90;99.90;;;;;;5015408;28;20050;-71
2021/11/27 09:10:44;;;;;;;23.73;11.37;;;1.90;99.90;;;;;;5015088;28;20112;-72
2021/11/27 09:13:13;;;;;;;24.53;11.70;;;2.00;99.90;;;;;;5014894;28;20053;-72
2021/11/27 09:15:40;;;;;;;25.60;12.17;;;1.90;99.90;;;;;;5015224;28;20053;-72
2021/11/27 09:18:09;;;;;;;26.50;12.53;;;2.00;99.90;;;;;;5015932;28;20049;-72
2021/11/27 09:20:37;;;;;;;24.37;10.87;;;2.10;99.90;;;;;;5015410;28;20063;-70
2021/11/27 09:23:04;;;;;;;20.53;10.57;;;2.00;99.90;;;;;;5014818;28;20050;-72
2021/11/27 09:25:31;;;;;;;23.43;11.33;;;2.10;99.90;;;;;;5013887;28;20050;-72
2021/11/27 09:27:59;;;;;;;22.37;10.90;;;2.20;99.90;;;;;;5015160;28;20416;-72
2021/11/27 09:30:30;;;;;;;23.93;12.07;;;2.20;99.90;;;;;;5034851;28;20053;-73
2021/11/27 09:32:57;;;;;;;25.37;12.07;;;2.30;99.90;;;;;;5035173;28;20049;-72
2021/11/27 09:35:25;;;;;;;23.97;12.20;;;2.40;99.90;;;;;;5034511;28;20421;-73
2021/11/27 09:37:52;;;;;;;24.03;10.97;;;2.40;99.90;;;;;;5036738;28;20128;-73
2021/11/27 09:40:19;;;;;;;25.77;11.77;;;2.40;99.90;;;;;;5037130;28;20492;-71
2021/11/27 09:42:50;;;;;;;35.47;13.17;;;2.40;99.90;;;;;;5037261;28;20056;-73
2021/11/27 09:45:23;;;;;;;24.73;11.57;;;2.40;99.90;;;;;;5033977;28;20076;-75
2021/11/27 09:47:53;;;;;;;21.10;10.77;;;2.50;99.90;;;;;;5036057;28;20136;-72
2021/11/27 09:50:22;;;;;;;20.27;11.00;;;2.70;99.90;;;;;;5036343;28;20057;-73
2021/11/27 09:52:49;;;;;;;22.67;11.40;;;2.80;99.90;;;;;;5034769;28;20100;-71
2021/11/27 09:55:17;;;;;;;22.17;10.50;;;2.80;99.90;;;;;;5033811;28;20053;-73
2021/11/27 09:57:45;;;;;;;24.87;12.13;;;3.00;99.90;;;;;;5033717;28;20127;-72
2021/11/27 10:00:14;;;;;;;22.53;11.77;;;3.40;99.90;;;;;;5034885;28;20399;-72
2021/11/27 10:02:43;;;;;;;18.10;8.57;;;3.70;99.90;;;;;;5034661;28;20087;-75
2021/11/27 10:05:14;;;;;;;20.90;11.03;;;4.20;99.90;;;;;;5033743;28;20052;-75
2021/11/27 10:07:42;;;;;;;18.70;9.27;;;4.40;99.90;;;;;;5034878;28;20042;-72
2021/11/27 10:10:11;;;;;;;18.03;9.43;;;5.00;99.90;;;;;;5035876;28;20053;-72
2021/11/27 10:12:40;;;;;;;18.70;9.93;;;4.60;99.90;;;;;;5035444;28;20107;-71
2021/11/27 10:15:09;;;;;;;17.63;9.13;;;3.90;99.90;;;;;;5036261;28;20502;-70
2021/11/27 10:17:36;;;;;;;20.37;10.30;;;3.70;99.90;;;;;;5036193;28;20115;-71
2021/11/27 10:20:06;;;;;;;18.23;9.27;;;3.50;99.90;;;;;;5034680;28;20049;-71
2021/11/27 10:22:51;;;;;;;17.37;8.50;;;3.40;99.90;;;;;;5034490;28;20049;-72
2021/11/27 10:25:30;;;;;;;18.80;9.10;;;3.30;99.90;;;;;;5033513;28;20046;-71
2021/11/27 10:28:06;;;;;;;17.83;9.30;;;3.40;99.90;;;;;;5034832;28;20406;-71
2021/11/27 10:30:54;;;;;;;16.20;8.50;;;3.40;99.90;;;;;;5034432;28;20050;-69
2021/11/27 10:33:22;;;;;;;18.37;9.97;;;3.50;99.90;;;;;;5034730;28;20096;-74
2021/11/27 10:36:01;;;;;;;18.63;9.40;;;3.50;99.90;;;;;;5035044;28;20171;-73
2021/11/27 10:38:37;;;;;;;20.23;9.33;;;3.50;99.90;;;;;;5034974;28;20115;-71
2021/11/27 10:41:04;;;;;;;19.30;9.37;;;3.40;99.90;;;;;;5034459;28;20437;-72
2021/11/27 10:43:33;;;;;;;18.30;9.40;;;3.40;99.90;;;;;;5033933;28;20103;-72
2021/11/27 10:46:00;;;;;;;18.13;8.23;;;3.40;99.90;;;;;;5034687;28;20045;-72
2021/11/27 10:48:28;;;;;;;17.97;8.57;;;3.50;99.90;;;;;;5034879;28;20050;-72
2021/11/27 10:50:59;;;;;;;17.17;7.50;;;3.60;99.90;;;;;;5033946;28;20117;-70
2021/11/27 10:53:31;;;;;;;19.20;8.90;;;3.60;99.90;;;;;;5033148;28;20528;-74
2021/11/27 10:56:06;;;;;;;18.37;8.63;;;3.80;99.90;;;;;;5032989;28;20054;-70
2021/11/27 10:58:33;;;;;;;17.00;9.17;;;3.90;99.90;;;;;;5034561;28;20111;-72
2021/11/27 11:01:01;;;;;;;17.70;8.20;;;4.00;99.90;;;;;;5034558;28;20456;-74
2021/11/27 11:03:31;;;;;;;14.63;7.30;;;4.10;99.90;;;;;;5034772;28;20059;-71
2021/11/27 11:06:00;;;;;;;15.60;7.87;;;4.10;99.90;;;;;;5033923;28;20053;-71
2021/11/27 11:08:35;;;;;;;17.00;7.37;;;3.90;99.90;;;;;;5034693;28;20053;-71
2021/11/27 11:11:25;;;;;;;14.67;7.60;;;3.90;99.90;;;;;;5034160;28;20045;-70
2021/11/27 11:13:54;;;;;;;14.53;7.73;;;3.80;99.90;;;;;;5034281;28;20069;-72
2021/11/27 11:16:23;;;;;;;15.10;7.40;;;3.80;99.90;;;;;;5033704;28;20084;-76
2021/11/27 11:18:52;;;;;;;14.40;7.60;;;3.90;99.90;;;;;;5034656;28;20053;-69
2021/11/27 11:21:20;;;;;;;11.40;6.23;;;4.00;99.90;;;;;;5032972;28;20388;-69
2021/11/27 11:23:49;;;;;;;14.60;7.53;;;4.00;99.90;;;;;;5032418;28;20501;-69
2021/11/27 11:26:20;;;;;;;14.67;7.37;;;4.00;99.90;;;;;;5034822;28;20053;-69
2021/11/27 11:28:48;;;;;;;12.93;7.23;;;4.00;99.90;;;;;;5036610;28;20053;-70
2021/11/27 11:31:18;;;;;;;13.03;6.70;;;4.00;99.90;;;;;;5036388;28;20060;-68
2021/11/27 11:33:47;;;;;;;13.47;6.43;;;4.10;99.90;;;;;;5036290;28;20128;-69
2021/11/27 11:36:17;;;;;;;12.77;7.07;;;4.10;99.90;;;;;;5036457;28;20145;-69
2021/11/27 11:38:46;;;;;;;13.33;7.40;;;4.10;99.90;;;;;;5036110;28;20712;-69
2021/11/27 11:41:15;;;;;;;12.03;6.20;;;4.20;99.90;;;;;;5036616;28;20053;-73
2021/11/27 11:43:46;;;;;;;12.87;6.73;;;4.20;99.90;;;;;;5036383;28;20057;-72
2021/11/27 11:46:14;;;;;;;13.90;7.23;;;4.20;99.90;;;;;;5035854;28;20053;-69
2021/11/27 11:48:48;;;;;;;12.87;6.40;;;4.10;99.90;;;;;;5036834;28;20506;-71
2021/11/27 11:51:34;;;;;;;11.60;6.20;;;4.10;99.90;;;;;;5036386;28;20075;-68
2021/11/27 11:54:03;;;;;;;15.93;6.68;;;4.20;99.90;;;;;;5036100;28;20143;-69
2021/11/27 11:56:32;;;;;;;10.90;5.70;;;4.20;99.90;;;;;;5036136;28;20452;-69
2021/11/27 11:59:19;;;;;;;14.13;6.70;;;4.20;99.90;;;;;;5037306;28;20079;-68
2021/11/27 12:02:11;;;;;;;13.50;6.75;;;4.30;99.90;;;;;;5035883;28;20571;-70
2021/11/27 12:04:39;;;;;;;13.13;6.03;;;4.40;99.90;;;;;;5036153;28;20053;-70
2021/11/27 12:07:10;;;;;;;12.57;6.33;;;4.40;99.90;;;;;;5035467;28;20045;-72
2021/11/27 12:10:12;;;;;;;11.73;5.70;;;4.50;99.90;;;;;;5036237;28;20053;-70
2021/11/27 12:12:39;;;;;;;13.73;6.43;;;4.60;99.90;;;;;;5036229;28;20572;-72
2021/11/27 12:15:08;;;;;;;10.13;5.03;;;4.60;99.90;;;;;;5035415;28;20053;-70
2021/11/27 12:18:04;;;;;;;13.87;5.80;;;4.60;99.90;;;;;;5036124;28;20564;-70
2021/11/27 12:20:42;;;;;;;13.83;6.73;;;4.60;99.90;;;;;;5035091;28;20061;-69
2021/11/27 12:23:39;;;;;;;10.23;5.60;;;4.60;99.90;;;;;;5031926;28;20064;-70
2021/11/27 12:26:19;;;;;;;11.57;5.40;;;4.60;99.90;;;;;;5031943;28;20069;-71
2021/11/27 12:29:14;;;;;;;10.37;5.17;;;6.00;99.90;;;;;;5035475;28;20064;-70
2021/11/27 12:31:48;;;;;;;14.30;5.75;;;5.50;99.90;;;;;;5035958;28;20057;-70
2021/11/27 12:34:39;;;;;;;8.67;4.90;;;5.20;99.90;;;;;;5036880;28;20548;-73
2021/11/27 12:37:27;;;;;;;12.03;4.93;;;5.00;99.90;;;;;;5035656;28;20057;-71
2021/11/27 12:39:55;;;;;;;9.85;5.30;;;5.00;99.90;;;;;;5036139;28;20337;-70
2021/11/27 12:42:43;;;;;;;11.05;5.90;;;4.90;99.90;;;;;;5035776;28;20494;-70
2021/11/27 12:45:10;;;;;;;13.13;5.15;;;4.80;99.90;;;;;;5034810;28;20095;-69
2021/11/27 12:47:43;;;;;;;7.97;4.13;;;4.80;99.90;;;;;;5037003;28;20049;-71